sensor_id;sensor_type;location;lat;lon;timestamp;P1;durP1;ratioP1;P2;durP2;ratioP2
83119;SDS011;73001;51.784;4.660;2023-10-31T00:01:55;1.72;;;1.55;;
83119;SDS011;73001;51.784;4.660;2023-10-31T00:04:21;1.47;;;1.26;;
83119;SDS011;73001;51.784;4.660;2023-10-31T00:06:46;2.04;;;1.71;;
83119;SDS011;73001;51.784;4.660;2023-10-31T00:09:12;2.92;;;2.46;;
83119;SDS011;73001;51.784;4.660;2023-10-31T00:11:37;3.70;;;3.33;;
83119;SDS011;73001;51.784;4.660;2023-10-31T00:14:03;3.64;;;3.47;;
83119;SDS011;73001;51.784;4.660;2023-10-31T00:16:28;3.64;;;3.61;;
83119;SDS011;73001;51.784;4.660;2023-10-31T00:18:54;3.64;;;3.57;;
83119;SDS011;73001;51.784;4.660;2023-10-31T00:21:19;3.97;;;3.95;;
83119;SDS011;73001;51.784;4.660;2023-10-31T00:23:45;3.55;;;3.55;;
83119;SDS011;73001;51.784;4.660;2023-10-31T00:26:11;3.20;;;3.20;;
83119;SDS011;73001;51.784;4.660;2023-10-31T00:28:37;2.75;;;2.75;;
83119;SDS011;73001;51.784;4.660;2023-10-31T00:31:02;2.75;;;2.72;;
83119;SDS011;73001;51.784;4.660;2023-10-31T00:33:29;2.68;;;2.65;;
83119;SDS011;73001;51.784;4.660;2023-10-31T00:35:55;2.69;;;2.64;;
83119;SDS011;73001;51.784;4.660;2023-10-31T00:38:20;3.27;;;3.24;;
83119;SDS011;73001;51.784;4.660;2023-10-31T00:40:46;3.82;;;3.82;;
83119;SDS011;73001;51.784;4.660;2023-10-31T00:43:11;4.16;;;4.16;;
83119;SDS011;73001;51.784;4.660;2023-10-31T00:45:36;4.28;;;4.27;;
83119;SDS011;73001;51.784;4.660;2023-10-31T00:48:02;4.47;;;4.47;;
83119;SDS011;73001;51.784;4.660;2023-10-31T00:50:28;4.61;;;4.60;;
83119;SDS011;73001;51.784;4.660;2023-10-31T00:52:54;5.39;;;5.36;;
83119;SDS011;73001;51.784;4.660;2023-10-31T00:55:19;4.98;;;4.95;;
83119;SDS011;73001;51.784;4.660;2023-10-31T00:57:45;5.31;;;5.29;;
83119;SDS011;73001;51.784;4.660;2023-10-31T01:00:10;5.48;;;5.46;;
83119;SDS011;73001;51.784;4.660;2023-10-31T01:02:36;5.95;;;5.89;;
83119;SDS011;73001;51.784;4.660;2023-10-31T01:05:02;5.90;;;5.85;;
83119;SDS011;73001;51.784;4.660;2023-10-31T01:07:27;6.37;;;6.35;;
83119;SDS011;73001;51.784;4.660;2023-10-31T01:09:52;6.37;;;6.30;;
83119;SDS011;73001;51.784;4.660;2023-10-31T01:12:18;7.30;;;7.14;;
83119;SDS011;73001;51.784;4.660;2023-10-31T01:14:43;7.48;;;7.32;;
83119;SDS011;73001;51.784;4.660;2023-10-31T01:17:09;7.98;;;7.84;;
83119;SDS011;73001;51.784;4.660;2023-10-31T01:19:34;8.25;;;8.19;;
83119;SDS011;73001;51.784;4.660;2023-10-31T01:22:00;8.44;;;8.37;;
83119;SDS011;73001;51.784;4.660;2023-10-31T01:24:25;8.85;;;8.80;;
83119;SDS011;73001;51.784;4.660;2023-10-31T01:26:51;9.03;;;8.88;;
83119;SDS011;73001;51.784;4.660;2023-10-31T01:29:16;10.11;;;9.96;;
83119;SDS011;73001;51.784;4.660;2023-10-31T01:31:42;10.50;;;10.26;;
83119;SDS011;73001;51.784;4.660;2023-10-31T01:34:07;11.19;;;11.05;;
83119;SDS011;73001;51.784;4.660;2023-10-31T01:36:33;11.05;;;10.95;;
83119;SDS011;73001;51.784;4.660;2023-10-31T01:38:58;10.16;;;10.07;;
83119;SDS011;73001;51.784;4.660;2023-10-31T01:41:24;9.07;;;8.95;;
83119;SDS011;73001;51.784;4.660;2023-10-31T01:43:49;8.09;;;7.97;;
83119;SDS011;73001;51.784;4.660;2023-10-31T01:46:15;6.89;;;6.78;;
83119;SDS011;73001;51.784;4.660;2023-10-31T01:48:40;4.69;;;4.64;;
83119;SDS011;73001;51.784;4.660;2023-10-31T01:51:07;3.55;;;3.54;;
83119;SDS011;73001;51.784;4.660;2023-10-31T01:53:35;2.92;;;2.91;;
83119;SDS011;73001;51.784;4.660;2023-10-31T01:56:02;2.37;;;2.35;;
83119;SDS011;73001;51.784;4.660;2023-10-31T01:58:29;1.97;;;1.94;;
83119;SDS011;73001;51.784;4.660;2023-10-31T02:00:59;1.56;;;1.53;;
83119;SDS011;73001;51.784;4.660;2023-10-31T02:03:26;1.54;;;1.51;;
83119;SDS011;73001;51.784;4.660;2023-10-31T02:05:52;1.16;;;1.13;;
83119;SDS011;73001;51.784;4.660;2023-10-31T02:08:19;1.11;;;1.07;;
83119;SDS011;73001;51.784;4.660;2023-10-31T02:10:44;0.85;;;0.82;;
83119;SDS011;73001;51.784;4.660;2023-10-31T02:13:13;1.03;;;0.96;;
83119;SDS011;73001;51.784;4.660;2023-10-31T02:15:40;0.72;;;0.66;;
83119;SDS011;73001;51.784;4.660;2023-10-31T02:18:06;1.01;;;0.90;;
83119;SDS011;73001;51.784;4.660;2023-10-31T02:20:32;0.94;;;0.83;;
83119;SDS011;73001;51.784;4.660;2023-10-31T02:22:58;0.87;;;0.75;;
83119;SDS011;73001;51.784;4.660;2023-10-31T02:25:23;0.91;;;0.79;;
83119;SDS011;73001;51.784;4.660;2023-10-31T02:27:49;0.97;;;0.84;;
83119;SDS011;73001;51.784;4.660;2023-10-31T02:30:15;0.98;;;0.83;;
83119;SDS011;73001;51.784;4.660;2023-10-31T02:32:40;0.81;;;0.68;;
83119;SDS011;73001;51.784;4.660;2023-10-31T02:35:06;0.97;;;0.81;;
83119;SDS011;73001;51.784;4.660;2023-10-31T02:37:33;0.74;;;0.61;;
83119;SDS011;73001;51.784;4.660;2023-10-31T02:39:58;0.86;;;0.70;;
83119;SDS011;73001;51.784;4.660;2023-10-31T02:42:25;0.92;;;0.75;;
83119;SDS011;73001;51.784;4.660;2023-10-31T02:44:52;0.99;;;0.79;;
83119;SDS011;73001;51.784;4.660;2023-10-31T02:47:18;0.76;;;0.60;;
83119;SDS011;73001;51.784;4.660;2023-10-31T02:49:43;0.74;;;0.58;;
83119;SDS011;73001;51.784;4.660;2023-10-31T02:52:09;0.88;;;0.69;;
83119;SDS011;73001;51.784;4.660;2023-10-31T02:54:34;0.91;;;0.71;;
83119;SDS011;73001;51.784;4.660;2023-10-31T02:57:00;0.95;;;0.73;;
83119;SDS011;73001;51.784;4.660;2023-10-31T02:59:25;0.95;;;0.72;;
83119;SDS011;73001;51.784;4.660;2023-10-31T03:01:52;1.16;;;0.88;;
83119;SDS011;73001;51.784;4.660;2023-10-31T03:04:17;0.95;;;0.72;;
83119;SDS011;73001;51.784;4.660;2023-10-31T03:06:43;1.21;;;0.91;;
83119;SDS011;73001;51.784;4.660;2023-10-31T03:09:08;0.94;;;0.71;;
83119;SDS011;73001;51.784;4.660;2023-10-31T03:11:34;1.00;;;0.76;;
83119;SDS011;73001;51.784;4.660;2023-10-31T03:13:59;1.05;;;0.79;;
83119;SDS011;73001;51.784;4.660;2023-10-31T03:16:24;1.10;;;0.83;;
83119;SDS011;73001;51.784;4.660;2023-10-31T03:18:50;1.58;;;1.21;;
83119;SDS011;73001;51.784;4.660;2023-10-31T03:21:15;1.03;;;0.79;;
83119;SDS011;73001;51.784;4.660;2023-10-31T03:23:46;1.00;;;0.75;;
83119;SDS011;73001;51.784;4.660;2023-10-31T03:26:12;1.25;;;0.95;;
83119;SDS011;73001;51.784;4.660;2023-10-31T03:28:38;1.22;;;0.93;;
83119;SDS011;73001;51.784;4.660;2023-10-31T03:31:03;1.00;;;0.76;;
83119;SDS011;73001;51.784;4.660;2023-10-31T03:33:29;1.52;;;1.15;;
83119;SDS011;73001;51.784;4.660;2023-10-31T03:35:54;1.11;;;0.84;;
83119;SDS011;73001;51.784;4.660;2023-10-31T03:38:19;1.28;;;0.99;;
83119;SDS011;73001;51.784;4.660;2023-10-31T03:40:45;1.62;;;1.25;;
83119;SDS011;73001;51.784;4.660;2023-10-31T03:43:10;1.34;;;1.02;;
83119;SDS011;73001;51.784;4.660;2023-10-31T03:45:36;1.24;;;0.94;;
83119;SDS011;73001;51.784;4.660;2023-10-31T03:48:02;1.67;;;1.27;;
83119;SDS011;73001;51.784;4.660;2023-10-31T03:50:27;1.71;;;1.29;;
83119;SDS011;73001;51.784;4.660;2023-10-31T03:52:52;1.44;;;1.11;;
83119;SDS011;73001;51.784;4.660;2023-10-31T03:55:18;1.54;;;1.19;;
83119;SDS011;73001;51.784;4.660;2023-10-31T03:57:43;1.76;;;1.35;;
83119;SDS011;73001;51.784;4.660;2023-10-31T04:00:09;1.66;;;1.30;;
83119;SDS011;73001;51.784;4.660;2023-10-31T04:02:36;1.68;;;1.34;;
83119;SDS011;73001;51.784;4.660;2023-10-31T04:05:04;2.31;;;1.92;;
83119;SDS011;73001;51.784;4.660;2023-10-31T04:07:30;2.25;;;1.96;;
83119;SDS011;73001;51.784;4.660;2023-10-31T04:09:55;2.50;;;2.28;;
83119;SDS011;73001;51.784;4.660;2023-10-31T04:12:21;2.28;;;2.15;;
83119;SDS011;73001;51.784;4.660;2023-10-31T04:14:46;2.23;;;2.12;;
83119;SDS011;73001;51.784;4.660;2023-10-31T04:17:12;1.45;;;1.38;;
83119;SDS011;73001;51.784;4.660;2023-10-31T04:19:37;1.20;;;1.13;;
83119;SDS011;73001;51.784;4.660;2023-10-31T04:22:03;1.28;;;1.17;;
83119;SDS011;73001;51.784;4.660;2023-10-31T04:24:28;1.03;;;0.92;;
83119;SDS011;73001;51.784;4.660;2023-10-31T04:26:54;1.13;;;1.01;;
83119;SDS011;73001;51.784;4.660;2023-10-31T04:29:19;1.06;;;0.93;;
83119;SDS011;73001;51.784;4.660;2023-10-31T04:31:45;0.93;;;0.82;;
83119;SDS011;73001;51.784;4.660;2023-10-31T04:34:10;0.87;;;0.75;;
83119;SDS011;73001;51.784;4.660;2023-10-31T04:36:36;1.01;;;0.86;;
83119;SDS011;73001;51.784;4.660;2023-10-31T04:39:01;1.16;;;0.98;;
83119;SDS011;73001;51.784;4.660;2023-10-31T04:41:27;1.60;;;1.37;;
83119;SDS011;73001;51.784;4.660;2023-10-31T04:43:52;1.86;;;1.62;;
83119;SDS011;73001;51.784;4.660;2023-10-31T04:46:18;1.48;;;1.32;;
83119;SDS011;73001;51.784;4.660;2023-10-31T04:48:43;1.05;;;0.95;;
83119;SDS011;73001;51.784;4.660;2023-10-31T04:51:09;1.00;;;0.91;;
83119;SDS011;73001;51.784;4.660;2023-10-31T04:53:34;0.96;;;0.87;;
83119;SDS011;73001;51.784;4.660;2023-10-31T04:56:00;0.96;;;0.86;;
83119;SDS011;73001;51.784;4.660;2023-10-31T04:58:25;0.97;;;0.88;;
83119;SDS011;73001;51.784;4.660;2023-10-31T05:00:51;0.79;;;0.72;;
83119;SDS011;73001;51.784;4.660;2023-10-31T05:03:16;0.90;;;0.82;;
83119;SDS011;73001;51.784;4.660;2023-10-31T05:05:42;1.11;;;1.01;;
83119;SDS011;73001;51.784;4.660;2023-10-31T05:08:08;0.94;;;0.86;;
83119;SDS011;73001;51.784;4.660;2023-10-31T05:10:34;0.90;;;0.84;;
83119;SDS011;73001;51.784;4.660;2023-10-31T05:13:00;1.09;;;1.02;;
83119;SDS011;73001;51.784;4.660;2023-10-31T05:15:27;1.13;;;1.07;;
83119;SDS011;73001;51.784;4.660;2023-10-31T05:17:52;1.24;;;1.18;;
83119;SDS011;73001;51.784;4.660;2023-10-31T05:20:18;1.17;;;1.12;;
83119;SDS011;73001;51.784;4.660;2023-10-31T05:22:43;1.04;;;1.00;;
83119;SDS011;73001;51.784;4.660;2023-10-31T05:25:08;0.87;;;0.82;;
83119;SDS011;73001;51.784;4.660;2023-10-31T05:27:34;1.13;;;1.07;;
83119;SDS011;73001;51.784;4.660;2023-10-31T05:30:00;1.24;;;1.18;;
83119;SDS011;73001;51.784;4.660;2023-10-31T05:32:25;1.41;;;1.36;;
83119;SDS011;73001;51.784;4.660;2023-10-31T05:34:51;1.25;;;1.22;;
83119;SDS011;73001;51.784;4.660;2023-10-31T05:37:16;1.39;;;1.36;;
83119;SDS011;73001;51.784;4.660;2023-10-31T05:39:41;1.37;;;1.35;;
83119;SDS011;73001;51.784;4.660;2023-10-31T05:42:07;1.25;;;1.23;;
83119;SDS011;73001;51.784;4.660;2023-10-31T05:44:32;1.26;;;1.25;;
83119;SDS011;73001;51.784;4.660;2023-10-31T05:46:58;1.08;;;1.08;;
83119;SDS011;73001;51.784;4.660;2023-10-31T05:49:23;1.00;;;1.00;;
83119;SDS011;73001;51.784;4.660;2023-10-31T05:51:52;1.09;;;1.09;;
83119;SDS011;73001;51.784;4.660;2023-10-31T05:54:18;0.96;;;0.96;;
83119;SDS011;73001;51.784;4.660;2023-10-31T05:56:44;1.32;;;1.32;;
83119;SDS011;73001;51.784;4.660;2023-10-31T05:59:10;1.76;;;1.76;;
83119;SDS011;73001;51.784;4.660;2023-10-31T06:01:36;2.19;;;2.19;;
83119;SDS011;73001;51.784;4.660;2023-10-31T06:04:02;2.03;;;2.03;;
83119;SDS011;73001;51.784;4.660;2023-10-31T06:06:27;2.04;;;2.04;;
83119;SDS011;73001;51.784;4.660;2023-10-31T06:08:53;2.04;;;2.04;;
83119;SDS011;73001;51.784;4.660;2023-10-31T06:11:18;2.18;;;2.18;;
83119;SDS011;73001;51.784;4.660;2023-10-31T06:13:44;2.34;;;2.34;;
83119;SDS011;73001;51.784;4.660;2023-10-31T06:16:09;2.78;;;2.78;;
83119;SDS011;73001;51.784;4.660;2023-10-31T06:18:35;3.28;;;3.28;;
83119;SDS011;73001;51.784;4.660;2023-10-31T06:21:02;3.59;;;3.59;;
83119;SDS011;73001;51.784;4.660;2023-10-31T06:23:28;3.37;;;3.37;;
83119;SDS011;73001;51.784;4.660;2023-10-31T06:25:53;4.11;;;4.11;;
83119;SDS011;73001;51.784;4.660;2023-10-31T06:28:19;4.30;;;4.30;;
83119;SDS011;73001;51.784;4.660;2023-10-31T06:56:43;7.29;;;7.26;;
83119;SDS011;73001;51.784;4.660;2023-10-31T06:59:09;6.42;;;6.40;;
83119;SDS011;73001;51.784;4.660;2023-10-31T07:01:35;5.47;;;5.47;;
83119;SDS011;73001;51.784;4.660;2023-10-31T07:04:00;5.00;;;5.00;;
83119;SDS011;73001;51.784;4.660;2023-10-31T07:06:26;4.68;;;4.68;;
83119;SDS011;73001;51.784;4.660;2023-10-31T07:08:51;4.71;;;4.71;;
83119;SDS011;73001;51.784;4.660;2023-10-31T07:11:16;4.74;;;4.74;;
83119;SDS011;73001;51.784;4.660;2023-10-31T07:13:42;5.01;;;5.01;;
83119;SDS011;73001;51.784;4.660;2023-10-31T07:16:07;5.12;;;5.12;;
83119;SDS011;73001;51.784;4.660;2023-10-31T07:18:33;5.41;;;5.41;;
83119;SDS011;73001;51.784;4.660;2023-10-31T07:20:58;6.18;;;6.18;;
83119;SDS011;73001;51.784;4.660;2023-10-31T07:23:24;7.19;;;7.19;;
83119;SDS011;73001;51.784;4.660;2023-10-31T07:25:49;7.82;;;7.82;;
83119;SDS011;73001;51.784;4.660;2023-10-31T07:28:14;8.73;;;8.73;;
83119;SDS011;73001;51.784;4.660;2023-10-31T07:30:40;9.20;;;9.20;;
83119;SDS011;73001;51.784;4.660;2023-10-31T07:33:05;9.80;;;9.80;;
83119;SDS011;73001;51.784;4.660;2023-10-31T07:35:31;10.80;;;10.80;;
83119;SDS011;73001;51.784;4.660;2023-10-31T07:37:56;11.15;;;11.15;;
83119;SDS011;73001;51.784;4.660;2023-10-31T07:40:21;12.22;;;12.22;;
83119;SDS011;73001;51.784;4.660;2023-10-31T07:42:47;11.92;;;11.91;;
83119;SDS011;73001;51.784;4.660;2023-10-31T07:45:12;11.54;;;11.54;;
83119;SDS011;73001;51.784;4.660;2023-10-31T07:47:38;10.82;;;10.82;;
83119;SDS011;73001;51.784;4.660;2023-10-31T07:50:03;10.52;;;10.52;;
83119;SDS011;73001;51.784;4.660;2023-10-31T07:52:30;9.71;;;9.71;;
83119;SDS011;73001;51.784;4.660;2023-10-31T07:54:55;8.69;;;8.69;;
83119;SDS011;73001;51.784;4.660;2023-10-31T07:57:20;8.24;;;8.23;;
83119;SDS011;73001;51.784;4.660;2023-10-31T07:59:46;8.30;;;8.30;;
83119;SDS011;73001;51.784;4.660;2023-10-31T08:02:12;8.28;;;8.28;;
83119;SDS011;73001;51.784;4.660;2023-10-31T08:04:38;8.35;;;8.35;;
83119;SDS011;73001;51.784;4.660;2023-10-31T08:07:03;8.46;;;8.46;;
83119;SDS011;73001;51.784;4.660;2023-10-31T08:09:29;8.44;;;8.44;;
83119;SDS011;73001;51.784;4.660;2023-10-31T08:11:54;7.93;;;7.93;;
83119;SDS011;73001;51.784;4.660;2023-10-31T08:14:20;7.69;;;7.69;;
83119;SDS011;73001;51.784;4.660;2023-10-31T08:16:47;7.28;;;7.28;;
83119;SDS011;73001;51.784;4.660;2023-10-31T08:19:12;7.37;;;7.37;;
83119;SDS011;73001;51.784;4.660;2023-10-31T08:21:38;6.46;;;6.46;;
83119;SDS011;73001;51.784;4.660;2023-10-31T08:24:03;6.04;;;6.03;;
83119;SDS011;73001;51.784;4.660;2023-10-31T08:26:30;6.19;;;6.19;;
83119;SDS011;73001;51.784;4.660;2023-10-31T08:28:56;5.83;;;5.81;;
83119;SDS011;73001;51.784;4.660;2023-10-31T08:31:21;6.00;;;5.96;;
83119;SDS011;73001;51.784;4.660;2023-10-31T08:33:47;5.63;;;5.62;;
83119;SDS011;73001;51.784;4.660;2023-10-31T08:36:12;5.97;;;5.97;;
83119;SDS011;73001;51.784;4.660;2023-10-31T08:38:38;6.10;;;6.10;;
83119;SDS011;73001;51.784;4.660;2023-10-31T08:41:03;6.61;;;6.61;;
83119;SDS011;73001;51.784;4.660;2023-10-31T08:43:29;6.47;;;6.47;;
83119;SDS011;73001;51.784;4.660;2023-10-31T08:45:54;6.18;;;6.18;;
83119;SDS011;73001;51.784;4.660;2023-10-31T08:48:20;5.91;;;5.91;;
83119;SDS011;73001;51.784;4.660;2023-10-31T08:50:45;5.39;;;5.39;;
83119;SDS011;73001;51.784;4.660;2023-10-31T08:53:11;4.92;;;4.92;;
83119;SDS011;73001;51.784;4.660;2023-10-31T08:55:37;4.97;;;4.97;;
83119;SDS011;73001;51.784;4.660;2023-10-31T08:58:02;5.32;;;5.32;;
83119;SDS011;73001;51.784;4.660;2023-10-31T09:00:27;5.01;;;5.01;;
83119;SDS011;73001;51.784;4.660;2023-10-31T09:02:54;5.47;;;5.47;;
83119;SDS011;73001;51.784;4.660;2023-10-31T09:05:19;5.71;;;5.71;;
83119;SDS011;73001;51.784;4.660;2023-10-31T09:07:45;4.99;;;4.99;;
83119;SDS011;73001;51.784;4.660;2023-10-31T09:10:11;5.05;;;5.05;;
83119;SDS011;73001;51.784;4.660;2023-10-31T09:12:37;5.06;;;5.06;;
83119;SDS011;73001;51.784;4.660;2023-10-31T09:15:03;5.53;;;5.53;;
83119;SDS011;73001;51.784;4.660;2023-10-31T09:17:29;5.93;;;5.93;;
83119;SDS011;73001;51.784;4.660;2023-10-31T09:19:54;6.57;;;6.57;;
83119;SDS011;73001;51.784;4.660;2023-10-31T09:22:20;7.19;;;7.19;;
83119;SDS011;73001;51.784;4.660;2023-10-31T09:24:45;8.82;;;8.82;;
83119;SDS011;73001;51.784;4.660;2023-10-31T09:27:11;9.51;;;9.51;;
83119;SDS011;73001;51.784;4.660;2023-10-31T09:29:36;9.48;;;9.48;;
83119;SDS011;73001;51.784;4.660;2023-10-31T09:32:02;10.86;;;10.86;;
83119;SDS011;73001;51.784;4.660;2023-10-31T09:34:28;10.82;;;10.82;;
83119;SDS011;73001;51.784;4.660;2023-10-31T09:36:54;10.19;;;10.19;;
83119;SDS011;73001;51.784;4.660;2023-10-31T09:39:19;10.96;;;10.96;;
83119;SDS011;73001;51.784;4.660;2023-10-31T09:41:46;11.81;;;11.81;;
83119;SDS011;73001;51.784;4.660;2023-10-31T09:44:12;11.71;;;11.70;;
83119;SDS011;73001;51.784;4.660;2023-10-31T09:46:38;12.58;;;12.55;;
83119;SDS011;73001;51.784;4.660;2023-10-31T09:49:06;13.66;;;13.60;;
83119;SDS011;73001;51.784;4.660;2023-10-31T09:51:33;14.71;;;14.62;;
83119;SDS011;73001;51.784;4.660;2023-10-31T09:53:59;15.14;;;14.68;;
83119;SDS011;73001;51.784;4.660;2023-10-31T09:56:28;15.08;;;14.74;;
83119;SDS011;73001;51.784;4.660;2023-10-31T09:58:59;15.91;;;15.49;;
83119;SDS011;73001;51.784;4.660;2023-10-31T10:01:26;16.97;;;16.56;;
83119;SDS011;73001;51.784;4.660;2023-10-31T10:03:51;18.36;;;17.82;;
83119;SDS011;73001;51.784;4.660;2023-10-31T10:06:18;19.09;;;18.49;;
83119;SDS011;73001;51.784;4.660;2023-10-31T10:08:46;19.91;;;19.03;;
83119;SDS011;73001;51.784;4.660;2023-10-31T10:11:12;20.43;;;19.47;;
83119;SDS011;73001;51.784;4.660;2023-10-31T10:13:37;20.49;;;19.28;;
83119;SDS011;73001;51.784;4.660;2023-10-31T10:16:03;19.94;;;18.76;;
83119;SDS011;73001;51.784;4.660;2023-10-31T10:18:30;19.37;;;18.21;;
83119;SDS011;73001;51.784;4.660;2023-10-31T10:20:58;20.05;;;18.87;;
83119;SDS011;73001;51.784;4.660;2023-10-31T10:23:25;19.69;;;18.60;;
83119;SDS011;73001;51.784;4.660;2023-10-31T10:25:52;20.00;;;18.92;;
83119;SDS011;73001;51.784;4.660;2023-10-31T10:28:19;20.99;;;20.00;;
83119;SDS011;73001;51.784;4.660;2023-10-31T10:30:45;22.66;;;21.15;;
83119;SDS011;73001;51.784;4.660;2023-10-31T10:33:12;22.59;;;21.49;;
83119;SDS011;73001;51.784;4.660;2023-10-31T10:35:37;23.10;;;22.04;;
83119;SDS011;73001;51.784;4.660;2023-10-31T10:38:03;23.90;;;22.92;;
83119;SDS011;73001;51.784;4.660;2023-10-31T10:40:36;23.10;;;22.34;;
83119;SDS011;73001;51.784;4.660;2023-10-31T10:43:05;26.70;;;25.78;;
83119;SDS011;73001;51.784;4.660;2023-10-31T10:45:34;29.75;;;28.32;;
83119;SDS011;73001;51.784;4.660;2023-10-31T10:48:04;30.23;;;28.14;;
83119;SDS011;73001;51.784;4.660;2023-10-31T10:50:36;26.16;;;24.99;;
83119;SDS011;73001;51.784;4.660;2023-10-31T10:53:10;25.46;;;24.22;;
83119;SDS011;73001;51.784;4.660;2023-10-31T10:55:46;23.23;;;22.01;;
83119;SDS011;73001;51.784;4.660;2023-10-31T10:58:27;21.32;;;20.48;;
83119;SDS011;73001;51.784;4.660;2023-10-31T11:01:02;24.57;;;23.44;;
83119;SDS011;73001;51.784;4.660;2023-10-31T11:03:29;25.12;;;23.90;;
83119;SDS011;73001;51.784;4.660;2023-10-31T11:05:56;23.68;;;22.42;;
83119;SDS011;73001;51.784;4.660;2023-10-31T11:08:23;23.99;;;22.98;;
83119;SDS011;73001;51.784;4.660;2023-10-31T11:10:50;22.80;;;21.96;;
83119;SDS011;73001;51.784;4.660;2023-10-31T11:13:15;20.21;;;19.60;;
83119;SDS011;73001;51.784;4.660;2023-10-31T11:15:41;20.80;;;20.07;;
83119;SDS011;73001;51.784;4.660;2023-10-31T11:18:08;19.47;;;18.87;;
83119;SDS011;73001;51.784;4.660;2023-10-31T11:20:35;19.38;;;18.72;;
83119;SDS011;73001;51.784;4.660;2023-10-31T11:23:02;21.11;;;20.20;;
83119;SDS011;73001;51.784;4.660;2023-10-31T11:25:31;23.01;;;21.75;;
83119;SDS011;73001;51.784;4.660;2023-10-31T11:27:57;23.90;;;22.93;;
83119;SDS011;73001;51.784;4.660;2023-10-31T11:30:39;22.95;;;22.02;;
83119;SDS011;73001;51.784;4.660;2023-10-31T11:33:07;22.11;;;21.21;;
83119;SDS011;73001;51.784;4.660;2023-10-31T11:35:38;22.06;;;21.11;;
83119;SDS011;73001;51.784;4.660;2023-10-31T11:38:08;22.78;;;22.06;;
83119;SDS011;73001;51.784;4.660;2023-10-31T11:40:36;24.24;;;23.27;;
83119;SDS011;73001;51.784;4.660;2023-10-31T11:43:22;26.03;;;25.16;;
83119;SDS011;73001;51.784;4.660;2023-10-31T11:45:48;30.22;;;28.96;;
83119;SDS011;73001;51.784;4.660;2023-10-31T11:48:16;30.58;;;29.12;;
83119;SDS011;73001;51.784;4.660;2023-10-31T11:50:42;32.52;;;30.93;;
83119;SDS011;73001;51.784;4.660;2023-10-31T11:53:08;33.83;;;31.79;;
83119;SDS011;73001;51.784;4.660;2023-10-31T11:55:47;32.49;;;30.77;;
83119;SDS011;73001;51.784;4.660;2023-10-31T12:00:43;35.89;;;33.86;;
83119;SDS011;73001;51.784;4.660;2023-10-31T12:03:10;34.30;;;32.53;;
83119;SDS011;73001;51.784;4.660;2023-10-31T12:05:35;33.44;;;31.67;;
83119;SDS011;73001;51.784;4.660;2023-10-31T12:08:01;33.81;;;32.17;;
83119;SDS011;73001;51.784;4.660;2023-10-31T12:10:29;31.82;;;30.54;;
83119;SDS011;73001;51.784;4.660;2023-10-31T12:12:56;30.89;;;29.42;;
83119;SDS011;73001;51.784;4.660;2023-10-31T12:15:23;29.20;;;27.85;;
83119;SDS011;73001;51.784;4.660;2023-10-31T12:17:49;29.32;;;27.59;;
83119;SDS011;73001;51.784;4.660;2023-10-31T12:20:15;27.91;;;26.52;;
83119;SDS011;73001;51.784;4.660;2023-10-31T12:22:44;26.15;;;24.99;;
83119;SDS011;73001;51.784;4.660;2023-10-31T12:25:10;25.17;;;23.74;;
83119;SDS011;73001;51.784;4.660;2023-10-31T12:30:11;22.15;;;21.12;;
83119;SDS011;73001;51.784;4.660;2023-10-31T12:32:40;21.79;;;20.85;;
83119;SDS011;73001;51.784;4.660;2023-10-31T12:35:08;21.65;;;20.83;;
83119;SDS011;73001;51.784;4.660;2023-10-31T12:37:51;20.71;;;19.85;;
83119;SDS011;73001;51.784;4.660;2023-10-31T12:40:18;19.50;;;18.76;;
83119;SDS011;73001;51.784;4.660;2023-10-31T12:42:45;19.10;;;18.43;;
83119;SDS011;73001;51.784;4.660;2023-10-31T12:45:13;19.41;;;18.89;;
83119;SDS011;73001;51.784;4.660;2023-10-31T12:47:40;20.38;;;19.73;;
83119;SDS011;73001;51.784;4.660;2023-10-31T12:52:50;17.36;;;16.74;;
83119;SDS011;73001;51.784;4.660;2023-10-31T12:55:19;18.66;;;18.07;;
83119;SDS011;73001;51.784;4.660;2023-10-31T12:57:46;18.73;;;18.13;;
83119;SDS011;73001;51.784;4.660;2023-10-31T13:00:13;18.09;;;17.51;;
83119;SDS011;73001;51.784;4.660;2023-10-31T13:02:40;19.03;;;18.55;;
83119;SDS011;73001;51.784;4.660;2023-10-31T13:07:35;20.71;;;20.11;;
83119;SDS011;73001;51.784;4.660;2023-10-31T13:10:00;20.96;;;20.32;;
83119;SDS011;73001;51.784;4.660;2023-10-31T13:12:26;19.92;;;19.31;;
83119;SDS011;73001;51.784;4.660;2023-10-31T13:14:53;19.78;;;19.22;;
83119;SDS011;73001;51.784;4.660;2023-10-31T13:17:18;20.08;;;19.57;;
83119;SDS011;73001;51.784;4.660;2023-10-31T13:19:44;20.68;;;20.30;;
83119;SDS011;73001;51.784;4.660;2023-10-31T13:22:09;21.23;;;20.53;;
83119;SDS011;73001;51.784;4.660;2023-10-31T13:24:35;21.84;;;21.17;;
83119;SDS011;73001;51.784;4.660;2023-10-31T13:27:00;22.27;;;21.77;;
83119;SDS011;73001;51.784;4.660;2023-10-31T13:29:28;21.89;;;21.33;;
83119;SDS011;73001;51.784;4.660;2023-10-31T13:31:53;20.75;;;20.23;;
83119;SDS011;73001;51.784;4.660;2023-10-31T13:34:19;19.83;;;19.46;;
83119;SDS011;73001;51.784;4.660;2023-10-31T13:36:44;19.49;;;19.03;;
83119;SDS011;73001;51.784;4.660;2023-10-31T13:39:10;20.25;;;19.84;;
83119;SDS011;73001;51.784;4.660;2023-10-31T13:41:35;19.29;;;19.18;;
83119;SDS011;73001;51.784;4.660;2023-10-31T13:44:01;18.70;;;18.69;;
83119;SDS011;73001;51.784;4.660;2023-10-31T13:46:28;16.95;;;16.94;;
83119;SDS011;73001;51.784;4.660;2023-10-31T13:48:54;13.57;;;13.57;;
83119;SDS011;73001;51.784;4.660;2023-10-31T13:51:19;11.89;;;11.88;;
83119;SDS011;73001;51.784;4.660;2023-10-31T13:53:45;10.74;;;10.74;;
83119;SDS011;73001;51.784;4.660;2023-10-31T13:56:11;10.65;;;10.65;;
83119;SDS011;73001;51.784;4.660;2023-10-31T13:58:36;10.18;;;10.18;;
83119;SDS011;73001;51.784;4.660;2023-10-31T14:01:02;10.24;;;10.24;;
83119;SDS011;73001;51.784;4.660;2023-10-31T14:03:27;11.08;;;11.08;;
83119;SDS011;73001;51.784;4.660;2023-10-31T14:05:52;10.78;;;10.78;;
83119;SDS011;73001;51.784;4.660;2023-10-31T14:08:18;11.77;;;11.77;;
83119;SDS011;73001;51.784;4.660;2023-10-31T14:10:44;11.78;;;11.78;;
83119;SDS011;73001;51.784;4.660;2023-10-31T14:13:11;11.73;;;11.73;;
83119;SDS011;73001;51.784;4.660;2023-10-31T14:15:37;10.98;;;10.98;;
83119;SDS011;73001;51.784;4.660;2023-10-31T14:18:03;10.63;;;10.63;;
83119;SDS011;73001;51.784;4.660;2023-10-31T14:20:28;10.97;;;10.97;;
83119;SDS011;73001;51.784;4.660;2023-10-31T14:22:54;10.90;;;10.90;;
83119;SDS011;73001;51.784;4.660;2023-10-31T14:25:20;10.50;;;10.50;;
83119;SDS011;73001;51.784;4.660;2023-10-31T14:27:45;10.82;;;10.82;;
83119;SDS011;73001;51.784;4.660;2023-10-31T14:30:11;9.94;;;9.94;;
83119;SDS011;73001;51.784;4.660;2023-10-31T14:32:37;9.82;;;9.82;;
83119;SDS011;73001;51.784;4.660;2023-10-31T14:35:03;10.31;;;10.31;;
83119;SDS011;73001;51.784;4.660;2023-10-31T14:37:29;10.41;;;10.41;;
83119;SDS011;73001;51.784;4.660;2023-10-31T14:39:55;10.24;;;10.24;;
83119;SDS011;73001;51.784;4.660;2023-10-31T14:42:20;10.47;;;10.47;;
83119;SDS011;73001;51.784;4.660;2023-10-31T14:44:46;10.17;;;10.17;;
83119;SDS011;73001;51.784;4.660;2023-10-31T14:47:12;10.67;;;10.66;;
83119;SDS011;73001;51.784;4.660;2023-10-31T14:49:38;9.79;;;9.78;;
83119;SDS011;73001;51.784;4.660;2023-10-31T14:52:04;9.57;;;9.57;;
83119;SDS011;73001;51.784;4.660;2023-10-31T14:54:31;10.03;;;10.03;;
83119;SDS011;73001;51.784;4.660;2023-10-31T14:56:57;10.42;;;10.42;;
83119;SDS011;73001;51.784;4.660;2023-10-31T14:59:22;10.08;;;10.02;;
83119;SDS011;73001;51.784;4.660;2023-10-31T15:01:48;9.69;;;9.63;;
83119;SDS011;73001;51.784;4.660;2023-10-31T15:04:14;9.63;;;9.63;;
83119;SDS011;73001;51.784;4.660;2023-10-31T15:06:39;9.31;;;9.31;;
83119;SDS011;73001;51.784;4.660;2023-10-31T15:09:05;9.35;;;9.35;;